Terminal Aerodrome Forecast
Issued by NWS Sterling, VA

Current Version | Previous Version | Text Only | Print | Product List | Glossary Off
Versions: 1 2 3 4 5 6 7 8 9 10 11 12 13 14 15 16 17 18 19 20 21 22 23

000
FTUS41 KLWX 301120
TAFMRB
TAF
KMRB 301120Z 3012/0112 00000KT P6SM BKN080
     FM301800 VRB03KT 5SM SHRA OVC045
     FM010300 06008KT 5SM SHRA OVC050=

USA.gov is the U.S. government's official web portal to all federal, state and local government web resources and services.